sensor_id;sensor_type;location;lat;lon;timestamp;P1;durP1;ratioP1;P2;durP2;ratioP2
16139;SDS011;8175;49.326;12.690;2023-12-07T00:01:18;20.17;;;15.17;;
16139;SDS011;8175;49.326;12.690;2023-12-07T00:03:44;18.73;;;14.90;;
16139;SDS011;8175;49.326;12.690;2023-12-07T00:06:09;17.73;;;13.53;;
16139;SDS011;8175;49.326;12.690;2023-12-07T00:08:35;18.77;;;13.97;;
16139;SDS011;8175;49.326;12.690;2023-12-07T00:11:00;19.57;;;13.43;;
16139;SDS011;8175;49.326;12.690;2023-12-07T00:13:26;19.00;;;14.57;;
16139;SDS011;8175;49.326;12.690;2023-12-07T00:15:52;21.23;;;15.13;;
16139;SDS011;8175;49.326;12.690;2023-12-07T00:18:17;21.50;;;15.33;;
16139;SDS011;8175;49.326;12.690;2023-12-07T00:20:44;24.07;;;16.27;;
16139;SDS011;8175;49.326;12.690;2023-12-07T00:23:10;18.07;;;13.17;;
16139;SDS011;8175;49.326;12.690;2023-12-07T00:25:35;17.97;;;13.07;;
16139;SDS011;8175;49.326;12.690;2023-12-07T00:28:02;21.00;;;14.70;;
16139;SDS011;8175;49.326;12.690;2023-12-07T00:30:28;21.37;;;13.70;;
16139;SDS011;8175;49.326;12.690;2023-12-07T00:32:54;19.07;;;13.73;;
16139;SDS011;8175;49.326;12.690;2023-12-07T00:35:20;20.10;;;13.07;;
16139;SDS011;8175;49.326;12.690;2023-12-07T00:37:47;25.80;;;15.70;;
16139;SDS011;8175;49.326;12.690;2023-12-07T00:40:13;17.53;;;13.47;;
16139;SDS011;8175;49.326;12.690;2023-12-07T00:42:39;17.90;;;12.63;;
16139;SDS011;8175;49.326;12.690;2023-12-07T00:45:05;18.93;;;13.57;;
16139;SDS011;8175;49.326;12.690;2023-12-07T00:47:31;19.17;;;14.17;;
16139;SDS011;8175;49.326;12.690;2023-12-07T00:49:56;19.53;;;13.97;;
16139;SDS011;8175;49.326;12.690;2023-12-07T00:52:22;20.47;;;14.77;;
16139;SDS011;8175;49.326;12.690;2023-12-07T00:54:48;19.37;;;13.70;;
16139;SDS011;8175;49.326;12.690;2023-12-07T00:57:13;19.53;;;14.17;;
16139;SDS011;8175;49.326;12.690;2023-12-07T00:59:39;20.10;;;13.60;;
16139;SDS011;8175;49.326;12.690;2023-12-07T01:02:05;18.83;;;13.40;;
16139;SDS011;8175;49.326;12.690;2023-12-07T01:04:31;20.60;;;14.73;;
16139;SDS011;8175;49.326;12.690;2023-12-07T01:06:58;18.90;;;13.97;;
16139;SDS011;8175;49.326;12.690;2023-12-07T01:09:23;17.80;;;14.13;;
16139;SDS011;8175;49.326;12.690;2023-12-07T01:11:49;19.23;;;13.93;;
16139;SDS011;8175;49.326;12.690;2023-12-07T01:14:15;21.97;;;16.43;;
16139;SDS011;8175;49.326;12.690;2023-12-07T01:16:42;20.80;;;15.17;;
16139;SDS011;8175;49.326;12.690;2023-12-07T01:19:08;18.47;;;13.20;;
16139;SDS011;8175;49.326;12.690;2023-12-07T01:21:34;20.83;;;13.80;;
16139;SDS011;8175;49.326;12.690;2023-12-07T01:24:00;20.80;;;14.80;;
16139;SDS011;8175;49.326;12.690;2023-12-07T01:26:25;18.87;;;13.30;;
16139;SDS011;8175;49.326;12.690;2023-12-07T01:28:51;19.87;;;13.90;;
16139;SDS011;8175;49.326;12.690;2023-12-07T01:31:16;22.03;;;15.37;;
16139;SDS011;8175;49.326;12.690;2023-12-07T01:33:43;17.43;;;12.80;;
16139;SDS011;8175;49.326;12.690;2023-12-07T01:36:09;21.27;;;14.53;;
16139;SDS011;8175;49.326;12.690;2023-12-07T01:38:35;20.73;;;13.43;;
16139;SDS011;8175;49.326;12.690;2023-12-07T01:41:01;20.30;;;14.57;;
16139;SDS011;8175;49.326;12.690;2023-12-07T01:43:27;21.73;;;14.80;;
16139;SDS011;8175;49.326;12.690;2023-12-07T01:45:53;20.57;;;14.43;;
16139;SDS011;8175;49.326;12.690;2023-12-07T01:48:21;19.73;;;14.53;;
16139;SDS011;8175;49.326;12.690;2023-12-07T01:50:50;19.43;;;13.83;;
16139;SDS011;8175;49.326;12.690;2023-12-07T01:53:16;24.57;;;16.77;;
16139;SDS011;8175;49.326;12.690;2023-12-07T01:55:42;19.63;;;13.77;;
16139;SDS011;8175;49.326;12.690;2023-12-07T01:58:08;23.93;;;16.13;;
16139;SDS011;8175;49.326;12.690;2023-12-07T02:00:35;23.40;;;14.77;;
16139;SDS011;8175;49.326;12.690;2023-12-07T02:03:03;22.10;;;16.50;;
16139;SDS011;8175;49.326;12.690;2023-12-07T02:05:29;22.47;;;14.93;;
16139;SDS011;8175;49.326;12.690;2023-12-07T02:07:56;20.70;;;14.60;;
16139;SDS011;8175;49.326;12.690;2023-12-07T02:10:22;20.67;;;14.50;;
16139;SDS011;8175;49.326;12.690;2023-12-07T02:12:48;20.73;;;15.20;;
16139;SDS011;8175;49.326;12.690;2023-12-07T02:15:14;20.90;;;15.27;;
16139;SDS011;8175;49.326;12.690;2023-12-07T02:22:56;21.07;;;13.57;;
16139;SDS011;8175;49.326;12.690;2023-12-07T02:25:29;18.80;;;14.27;;
16139;SDS011;8175;49.326;12.690;2023-12-07T02:28:03;20.63;;;13.77;;
16139;SDS011;8175;49.326;12.690;2023-12-07T02:30:28;26.13;;;15.10;;
16139;SDS011;8175;49.326;12.690;2023-12-07T02:32:54;19.03;;;14.60;;
16139;SDS011;8175;49.326;12.690;2023-12-07T02:35:20;23.57;;;15.67;;
16139;SDS011;8175;49.326;12.690;2023-12-07T02:37:46;19.63;;;14.30;;
16139;SDS011;8175;49.326;12.690;2023-12-07T02:40:16;20.60;;;14.40;;
16139;SDS011;8175;49.326;12.690;2023-12-07T02:42:50;21.80;;;15.20;;
16139;SDS011;8175;49.326;12.690;2023-12-07T02:45:17;23.67;;;16.40;;
16139;SDS011;8175;49.326;12.690;2023-12-07T02:47:43;21.73;;;14.73;;
16139;SDS011;8175;49.326;12.690;2023-12-07T02:50:10;23.23;;;16.10;;
16139;SDS011;8175;49.326;12.690;2023-12-07T02:52:36;23.87;;;16.93;;
16139;SDS011;8175;49.326;12.690;2023-12-07T02:55:02;24.57;;;16.80;;
16139;SDS011;8175;49.326;12.690;2023-12-07T02:57:28;25.53;;;17.00;;
16139;SDS011;8175;49.326;12.690;2023-12-07T02:59:54;20.00;;;14.60;;
16139;SDS011;8175;49.326;12.690;2023-12-07T03:02:20;21.47;;;15.93;;
16139;SDS011;8175;49.326;12.690;2023-12-07T03:04:46;22.40;;;16.20;;
16139;SDS011;8175;49.326;12.690;2023-12-07T03:07:12;24.83;;;17.13;;
16139;SDS011;8175;49.326;12.690;2023-12-07T03:09:38;26.77;;;18.17;;
16139;SDS011;8175;49.326;12.690;2023-12-07T03:12:03;27.27;;;17.13;;
16139;SDS011;8175;49.326;12.690;2023-12-07T03:14:29;28.33;;;18.57;;
16139;SDS011;8175;49.326;12.690;2023-12-07T03:16:55;24.10;;;16.60;;
16139;SDS011;8175;49.326;12.690;2023-12-07T03:19:21;24.33;;;16.87;;
16139;SDS011;8175;49.326;12.690;2023-12-07T03:21:46;25.30;;;17.33;;
16139;SDS011;8175;49.326;12.690;2023-12-07T03:24:12;27.73;;;17.73;;
16139;SDS011;8175;49.326;12.690;2023-12-07T03:26:38;28.27;;;18.17;;
16139;SDS011;8175;49.326;12.690;2023-12-07T03:29:03;27.03;;;17.30;;
16139;SDS011;8175;49.326;12.690;2023-12-07T03:31:29;26.73;;;17.87;;
16139;SDS011;8175;49.326;12.690;2023-12-07T03:33:55;25.53;;;17.73;;
16139;SDS011;8175;49.326;12.690;2023-12-07T03:36:21;28.07;;;17.70;;
16139;SDS011;8175;49.326;12.690;2023-12-07T03:38:47;26.07;;;18.33;;
16139;SDS011;8175;49.326;12.690;2023-12-07T03:41:14;25.73;;;16.93;;
16139;SDS011;8175;49.326;12.690;2023-12-07T03:43:39;22.07;;;15.27;;
16139;SDS011;8175;49.326;12.690;2023-12-07T03:46:05;22.30;;;15.93;;
16139;SDS011;8175;49.326;12.690;2023-12-07T03:48:32;22.97;;;16.17;;
16139;SDS011;8175;49.326;12.690;2023-12-07T03:50:58;21.63;;;14.93;;
16139;SDS011;8175;49.326;12.690;2023-12-07T03:53:24;24.93;;;16.97;;
16139;SDS011;8175;49.326;12.690;2023-12-07T03:55:50;23.60;;;15.90;;
16139;SDS011;8175;49.326;12.690;2023-12-07T03:58:16;21.37;;;14.67;;
16139;SDS011;8175;49.326;12.690;2023-12-07T04:00:41;28.10;;;16.87;;
16139;SDS011;8175;49.326;12.690;2023-12-07T04:03:07;24.10;;;15.67;;
16139;SDS011;8175;49.326;12.690;2023-12-07T04:05:33;22.97;;;15.83;;
16139;SDS011;8175;49.326;12.690;2023-12-07T04:07:58;26.33;;;18.30;;
16139;SDS011;8175;49.326;12.690;2023-12-07T04:10:24;25.23;;;17.50;;
16139;SDS011;8175;49.326;12.690;2023-12-07T04:12:50;25.63;;;17.80;;
16139;SDS011;8175;49.326;12.690;2023-12-07T04:15:17;23.33;;;16.77;;
16139;SDS011;8175;49.326;12.690;2023-12-07T04:17:44;26.23;;;17.93;;
16139;SDS011;8175;49.326;12.690;2023-12-07T04:20:09;26.60;;;17.93;;
16139;SDS011;8175;49.326;12.690;2023-12-07T04:22:35;24.90;;;16.93;;
16139;SDS011;8175;49.326;12.690;2023-12-07T04:25:01;24.43;;;16.80;;
16139;SDS011;8175;49.326;12.690;2023-12-07T04:27:27;29.60;;;19.67;;
16139;SDS011;8175;49.326;12.690;2023-12-07T04:29:52;28.90;;;18.13;;
16139;SDS011;8175;49.326;12.690;2023-12-07T04:32:19;26.13;;;18.30;;
16139;SDS011;8175;49.326;12.690;2023-12-07T04:34:44;23.77;;;17.23;;
16139;SDS011;8175;49.326;12.690;2023-12-07T04:37:10;24.10;;;17.13;;
16139;SDS011;8175;49.326;12.690;2023-12-07T04:39:36;24.53;;;17.07;;
16139;SDS011;8175;49.326;12.690;2023-12-07T04:42:02;25.83;;;18.20;;
16139;SDS011;8175;49.326;12.690;2023-12-07T04:44:28;27.20;;;18.00;;
16139;SDS011;8175;49.326;12.690;2023-12-07T04:46:53;28.47;;;17.83;;
16139;SDS011;8175;49.326;12.690;2023-12-07T04:49:19;30.70;;;18.03;;
16139;SDS011;8175;49.326;12.690;2023-12-07T04:51:45;26.43;;;17.60;;
16139;SDS011;8175;49.326;12.690;2023-12-07T04:54:14;28.37;;;18.30;;
16139;SDS011;8175;49.326;12.690;2023-12-07T04:56:40;25.80;;;18.47;;
16139;SDS011;8175;49.326;12.690;2023-12-07T04:59:07;27.47;;;19.20;;
16139;SDS011;8175;49.326;12.690;2023-12-07T05:01:34;27.03;;;18.60;;
16139;SDS011;8175;49.326;12.690;2023-12-07T05:04:03;27.30;;;18.50;;
16139;SDS011;8175;49.326;12.690;2023-12-07T05:06:32;30.67;;;20.03;;
16139;SDS011;8175;49.326;12.690;2023-12-07T05:08:59;26.43;;;18.73;;
16139;SDS011;8175;49.326;12.690;2023-12-07T05:11:24;24.73;;;17.97;;
16139;SDS011;8175;49.326;12.690;2023-12-07T05:13:51;28.63;;;18.20;;
16139;SDS011;8175;49.326;12.690;2023-12-07T05:16:17;26.47;;;17.77;;
16139;SDS011;8175;49.326;12.690;2023-12-07T05:18:42;26.63;;;18.10;;
16139;SDS011;8175;49.326;12.690;2023-12-07T05:21:09;30.23;;;17.97;;
16139;SDS011;8175;49.326;12.690;2023-12-07T05:23:35;24.90;;;17.13;;
16139;SDS011;8175;49.326;12.690;2023-12-07T05:26:00;24.53;;;17.30;;
16139;SDS011;8175;49.326;12.690;2023-12-07T05:28:26;27.37;;;18.17;;
16139;SDS011;8175;49.326;12.690;2023-12-07T05:30:52;21.30;;;16.00;;
16139;SDS011;8175;49.326;12.690;2023-12-07T05:33:18;24.70;;;16.53;;
16139;SDS011;8175;49.326;12.690;2023-12-07T05:35:44;21.27;;;15.83;;
16139;SDS011;8175;49.326;12.690;2023-12-07T05:38:10;25.40;;;17.20;;
16139;SDS011;8175;49.326;12.690;2023-12-07T05:40:36;24.03;;;17.37;;
16139;SDS011;8175;49.326;12.690;2023-12-07T05:43:02;26.87;;;16.97;;
16139;SDS011;8175;49.326;12.690;2023-12-07T05:45:28;23.87;;;17.27;;
16139;SDS011;8175;49.326;12.690;2023-12-07T05:47:54;30.00;;;19.40;;
16139;SDS011;8175;49.326;12.690;2023-12-07T05:50:20;24.93;;;17.47;;
16139;SDS011;8175;49.326;12.690;2023-12-07T05:52:45;30.90;;;20.83;;
16139;SDS011;8175;49.326;12.690;2023-12-07T05:55:11;25.40;;;17.93;;
16139;SDS011;8175;49.326;12.690;2023-12-07T05:57:37;31.43;;;21.57;;
16139;SDS011;8175;49.326;12.690;2023-12-07T06:00:03;98.13;;;49.93;;
16139;SDS011;8175;49.326;12.690;2023-12-07T06:02:32;63.50;;;38.27;;
16139;SDS011;8175;49.326;12.690;2023-12-07T06:04:58;69.10;;;37.93;;
16139;SDS011;8175;49.326;12.690;2023-12-07T06:07:23;35.53;;;22.90;;
16139;SDS011;8175;49.326;12.690;2023-12-07T06:09:49;36.00;;;23.37;;
16139;SDS011;8175;49.326;12.690;2023-12-07T06:12:15;40.13;;;24.60;;
16139;SDS011;8175;49.326;12.690;2023-12-07T06:14:40;44.13;;;27.20;;
16139;SDS011;8175;49.326;12.690;2023-12-07T06:17:06;41.70;;;26.63;;
16139;SDS011;8175;49.326;12.690;2023-12-07T06:19:33;33.03;;;21.53;;
16139;SDS011;8175;49.326;12.690;2023-12-07T06:21:58;33.97;;;22.50;;
16139;SDS011;8175;49.326;12.690;2023-12-07T06:24:24;32.10;;;20.17;;
16139;SDS011;8175;49.326;12.690;2023-12-07T06:26:50;31.07;;;20.97;;
16139;SDS011;8175;49.326;12.690;2023-12-07T06:29:17;28.17;;;18.93;;
16139;SDS011;8175;49.326;12.690;2023-12-07T06:31:43;29.43;;;18.93;;
16139;SDS011;8175;49.326;12.690;2023-12-07T06:34:10;27.33;;;19.20;;
16139;SDS011;8175;49.326;12.690;2023-12-07T06:36:35;26.83;;;18.23;;
16139;SDS011;8175;49.326;12.690;2023-12-07T06:39:01;27.80;;;17.63;;
16139;SDS011;8175;49.326;12.690;2023-12-07T06:41:28;24.83;;;17.80;;
16139;SDS011;8175;49.326;12.690;2023-12-07T06:43:54;29.33;;;19.27;;
16139;SDS011;8175;49.326;12.690;2023-12-07T06:46:20;28.30;;;19.97;;
16139;SDS011;8175;49.326;12.690;2023-12-07T06:48:45;27.87;;;17.77;;
16139;SDS011;8175;49.326;12.690;2023-12-07T06:51:11;29.40;;;18.20;;
16139;SDS011;8175;49.326;12.690;2023-12-07T06:53:39;28.77;;;20.00;;
16139;SDS011;8175;49.326;12.690;2023-12-07T06:56:06;28.80;;;19.30;;
16139;SDS011;8175;49.326;12.690;2023-12-07T06:58:32;30.17;;;19.40;;
16139;SDS011;8175;49.326;12.690;2023-12-07T07:00:57;29.03;;;19.57;;
16139;SDS011;8175;49.326;12.690;2023-12-07T07:03:23;31.10;;;18.97;;
16139;SDS011;8175;49.326;12.690;2023-12-07T07:05:49;26.37;;;17.07;;
16139;SDS011;8175;49.326;12.690;2023-12-07T07:08:15;30.13;;;17.43;;
16139;SDS011;8175;49.326;12.690;2023-12-07T07:10:41;24.43;;;17.17;;
16139;SDS011;8175;49.326;12.690;2023-12-07T07:13:07;31.97;;;18.90;;
16139;SDS011;8175;49.326;12.690;2023-12-07T07:15:33;30.50;;;18.10;;
16139;SDS011;8175;49.326;12.690;2023-12-07T07:17:58;31.70;;;20.23;;
16139;SDS011;8175;49.326;12.690;2023-12-07T07:20:24;30.07;;;19.40;;
16139;SDS011;8175;49.326;12.690;2023-12-07T07:22:50;35.73;;;20.30;;
16139;SDS011;8175;49.326;12.690;2023-12-07T07:25:16;56.27;;;31.13;;
16139;SDS011;8175;49.326;12.690;2023-12-07T07:27:45;97.03;;;53.30;;
16139;SDS011;8175;49.326;12.690;2023-12-07T07:30:11;71.57;;;41.60;;
16139;SDS011;8175;49.326;12.690;2023-12-07T07:32:37;203.23;;;111.50;;
16139;SDS011;8175;49.326;12.690;2023-12-07T07:35:03;345.90;;;177.83;;
16139;SDS011;8175;49.326;12.690;2023-12-07T07:37:29;211.60;;;108.67;;
16139;SDS011;8175;49.326;12.690;2023-12-07T07:39:54;48.37;;;28.27;;
16139;SDS011;8175;49.326;12.690;2023-12-07T07:42:20;47.83;;;28.67;;
16139;SDS011;8175;49.326;12.690;2023-12-07T07:44:46;40.83;;;24.77;;
16139;SDS011;8175;49.326;12.690;2023-12-07T07:47:11;57.40;;;33.43;;
16139;SDS011;8175;49.326;12.690;2023-12-07T07:49:37;29.67;;;20.23;;
16139;SDS011;8175;49.326;12.690;2023-12-07T07:52:02;31.03;;;18.20;;
16139;SDS011;8175;49.326;12.690;2023-12-07T07:54:30;29.90;;;18.53;;
16139;SDS011;8175;49.326;12.690;2023-12-07T07:56:55;27.63;;;17.77;;
16139;SDS011;8175;49.326;12.690;2023-12-07T07:59:21;26.30;;;17.47;;
16139;SDS011;8175;49.326;12.690;2023-12-07T08:01:47;25.50;;;16.37;;
16139;SDS011;8175;49.326;12.690;2023-12-07T08:04:13;25.80;;;16.57;;
16139;SDS011;8175;49.326;12.690;2023-12-07T08:06:39;25.30;;;16.27;;
16139;SDS011;8175;49.326;12.690;2023-12-07T08:09:04;24.37;;;16.03;;
16139;SDS011;8175;49.326;12.690;2023-12-07T08:11:30;28.30;;;16.80;;
16139;SDS011;8175;49.326;12.690;2023-12-07T08:13:57;27.70;;;17.27;;
16139;SDS011;8175;49.326;12.690;2023-12-07T08:16:23;23.07;;;15.07;;
16139;SDS011;8175;49.326;12.690;2023-12-07T08:18:49;25.07;;;15.47;;
16139;SDS011;8175;49.326;12.690;2023-12-07T08:21:18;24.67;;;15.70;;
16139;SDS011;8175;49.326;12.690;2023-12-07T08:23:45;23.40;;;15.47;;
16139;SDS011;8175;49.326;12.690;2023-12-07T08:26:11;22.60;;;14.33;;
16139;SDS011;8175;49.326;12.690;2023-12-07T08:28:39;24.70;;;14.73;;
16139;SDS011;8175;49.326;12.690;2023-12-07T08:31:05;18.90;;;13.43;;
16139;SDS011;8175;49.326;12.690;2023-12-07T08:33:31;19.43;;;14.10;;
16139;SDS011;8175;49.326;12.690;2023-12-07T08:35:59;17.63;;;13.63;;
16139;SDS011;8175;49.326;12.690;2023-12-07T08:38:25;16.13;;;12.70;;
16139;SDS011;8175;49.326;12.690;2023-12-07T08:40:50;16.77;;;12.50;;
16139;SDS011;8175;49.326;12.690;2023-12-07T08:43:18;18.27;;;13.70;;
16139;SDS011;8175;49.326;12.690;2023-12-07T08:45:46;16.50;;;11.47;;
16139;SDS011;8175;49.326;12.690;2023-12-07T08:48:11;17.50;;;12.67;;
16139;SDS011;8175;49.326;12.690;2023-12-07T08:50:37;26.20;;;18.03;;
16139;SDS011;8175;49.326;12.690;2023-12-07T08:53:02;24.57;;;17.47;;
16139;SDS011;8175;49.326;12.690;2023-12-07T08:55:28;16.13;;;12.57;;
16139;SDS011;8175;49.326;12.690;2023-12-07T08:57:54;16.10;;;12.03;;
16139;SDS011;8175;49.326;12.690;2023-12-07T09:00:20;16.03;;;12.83;;
16139;SDS011;8175;49.326;12.690;2023-12-07T09:02:49;18.27;;;13.93;;
16139;SDS011;8175;49.326;12.690;2023-12-07T09:05:15;26.17;;;19.47;;
16139;SDS011;8175;49.326;12.690;2023-12-07T09:07:40;25.27;;;18.53;;
16139;SDS011;8175;49.326;12.690;2023-12-07T09:10:07;24.63;;;18.63;;
16139;SDS011;8175;49.326;12.690;2023-12-07T09:12:33;17.70;;;12.90;;
16139;SDS011;8175;49.326;12.690;2023-12-07T09:15:01;22.13;;;13.97;;
16139;SDS011;8175;49.326;12.690;2023-12-07T09:17:30;21.10;;;14.53;;
16139;SDS011;8175;49.326;12.690;2023-12-07T09:19:56;17.43;;;12.80;;
16139;SDS011;8175;49.326;12.690;2023-12-07T09:22:21;20.40;;;14.27;;
16139;SDS011;8175;49.326;12.690;2023-12-07T09:24:47;16.80;;;12.50;;
16139;SDS011;8175;49.326;12.690;2023-12-07T09:27:13;16.83;;;12.37;;
16139;SDS011;8175;49.326;12.690;2023-12-07T09:29:39;34.33;;;24.90;;
16139;SDS011;8175;49.326;12.690;2023-12-07T09:32:05;20.80;;;15.33;;
16139;SDS011;8175;49.326;12.690;2023-12-07T09:34:32;15.40;;;12.63;;
16139;SDS011;8175;49.326;12.690;2023-12-07T09:37:10;15.70;;;12.67;;
16139;SDS011;8175;49.326;12.690;2023-12-07T09:39:36;17.60;;;13.63;;
16139;SDS011;8175;49.326;12.690;2023-12-07T09:42:02;17.43;;;12.40;;
16139;SDS011;8175;49.326;12.690;2023-12-07T09:44:27;14.63;;;11.97;;
16139;SDS011;8175;49.326;12.690;2023-12-07T09:46:54;15.67;;;12.20;;
16139;SDS011;8175;49.326;12.690;2023-12-07T09:49:20;12.87;;;10.10;;
16139;SDS011;8175;49.326;12.690;2023-12-07T09:51:46;13.37;;;11.53;;
16139;SDS011;8175;49.326;12.690;2023-12-07T09:54:12;16.23;;;11.67;;
16139;SDS011;8175;49.326;12.690;2023-12-07T09:56:38;26.10;;;17.73;;
16139;SDS011;8175;49.326;12.690;2023-12-07T09:59:04;13.90;;;9.53;;
16139;SDS011;8175;49.326;12.690;2023-12-07T10:01:32;13.10;;;11.07;;
16139;SDS011;8175;49.326;12.690;2023-12-07T10:06:45;10.37;;;9.00;;
16139;SDS011;8175;49.326;12.690;2023-12-07T10:09:11;15.40;;;10.97;;
16139;SDS011;8175;49.326;12.690;2023-12-07T10:11:37;66.17;;;39.80;;
16139;SDS011;8175;49.326;12.690;2023-12-07T10:14:04;14.20;;;10.90;;
16139;SDS011;8175;49.326;12.690;2023-12-07T10:16:34;11.83;;;9.63;;
16139;SDS011;8175;49.326;12.690;2023-12-07T10:19:13;16.53;;;10.80;;
16139;SDS011;8175;49.326;12.690;2023-12-07T10:21:41;22.93;;;16.00;;
16139;SDS011;8175;49.326;12.690;2023-12-07T10:24:07;15.87;;;12.30;;
16139;SDS011;8175;49.326;12.690;2023-12-07T10:26:34;12.70;;;9.30;;
16139;SDS011;8175;49.326;12.690;2023-12-07T10:29:01;12.33;;;9.40;;
16139;SDS011;8175;49.326;12.690;2023-12-07T10:31:30;10.67;;;8.40;;
16139;SDS011;8175;49.326;12.690;2023-12-07T10:33:56;12.60;;;10.23;;
16139;SDS011;8175;49.326;12.690;2023-12-07T10:36:22;13.30;;;10.60;;
16139;SDS011;8175;49.326;12.690;2023-12-07T10:38:48;15.10;;;9.87;;
16139;SDS011;8175;49.326;12.690;2023-12-07T10:41:16;12.77;;;10.17;;
16139;SDS011;8175;49.326;12.690;2023-12-07T10:44:08;11.90;;;10.00;;
16139;SDS011;8175;49.326;12.690;2023-12-07T10:46:33;15.43;;;11.40;;
16139;SDS011;8175;49.326;12.690;2023-12-07T10:49:06;13.00;;;9.47;;
16139;SDS011;8175;49.326;12.690;2023-12-07T10:51:41;14.13;;;9.53;;
16139;SDS011;8175;49.326;12.690;2023-12-07T10:54:14;13.23;;;9.60;;
16139;SDS011;8175;49.326;12.690;2023-12-07T10:56:45;12.97;;;9.37;;
16139;SDS011;8175;49.326;12.690;2023-12-07T10:59:12;12.40;;;9.87;;
16139;SDS011;8175;49.326;12.690;2023-12-07T11:01:41;12.20;;;9.60;;
16139;SDS011;8175;49.326;12.690;2023-12-07T11:04:12;12.93;;;10.30;;
16139;SDS011;8175;49.326;12.690;2023-12-07T11:06:41;10.93;;;9.33;;
16139;SDS011;8175;49.326;12.690;2023-12-07T11:09:09;12.37;;;9.70;;
16139;SDS011;8175;49.326;12.690;2023-12-07T11:11:39;10.87;;;9.40;;
16139;SDS011;8175;49.326;12.690;2023-12-07T11:14:21;14.97;;;10.57;;
16139;SDS011;8175;49.326;12.690;2023-12-07T11:16:48;13.50;;;10.43;;
16139;SDS011;8175;49.326;12.690;2023-12-07T11:22:00;15.70;;;10.73;;
16139;SDS011;8175;49.326;12.690;2023-12-07T11:24:30;11.97;;;9.63;;
16139;SDS011;8175;49.326;12.690;2023-12-07T11:26:56;12.77;;;8.97;;
16139;SDS011;8175;49.326;12.690;2023-12-07T11:29:25;10.73;;;8.23;;
16139;SDS011;8175;49.326;12.690;2023-12-07T11:32:02;13.90;;;9.67;;
16139;SDS011;8175;49.326;12.690;2023-12-07T11:34:36;8.23;;;6.97;;
16139;SDS011;8175;49.326;12.690;2023-12-07T11:37:06;7.43;;;5.73;;
16139;SDS011;8175;49.326;12.690;2023-12-07T11:39:36;7.33;;;6.63;;
16139;SDS011;8175;49.326;12.690;2023-12-07T11:42:10;8.03;;;6.43;;
16139;SDS011;8175;49.326;12.690;2023-12-07T11:44:43;8.17;;;6.50;;
16139;SDS011;8175;49.326;12.690;2023-12-07T11:47:17;7.53;;;6.17;;
16139;SDS011;8175;49.326;12.690;2023-12-07T11:49:43;7.93;;;6.40;;
16139;SDS011;8175;49.326;12.690;2023-12-07T11:52:16;7.93;;;6.10;;
16139;SDS011;8175;49.326;12.690;2023-12-07T11:54:45;7.20;;;6.13;;
16139;SDS011;8175;49.326;12.690;2023-12-07T11:57:12;7.30;;;6.60;;
16139;SDS011;8175;49.326;12.690;2023-12-07T11:59:41;6.70;;;6.10;;
16139;SDS011;8175;49.326;12.690;2023-12-07T12:02:10;6.17;;;5.57;;
16139;SDS011;8175;49.326;12.690;2023-12-07T12:04:37;10.87;;;7.90;;
16139;SDS011;8175;49.326;12.690;2023-12-07T12:07:03;7.73;;;6.63;;
16139;SDS011;8175;49.326;12.690;2023-12-07T12:09:29;7.13;;;5.93;;
16139;SDS011;8175;49.326;12.690;2023-12-07T12:11:56;5.93;;;5.13;;
16139;SDS011;8175;49.326;12.690;2023-12-07T12:14:25;6.23;;;4.97;;
16139;SDS011;8175;49.326;12.690;2023-12-07T12:16:51;5.40;;;4.80;;
16139;SDS011;8175;49.326;12.690;2023-12-07T12:19:17;6.30;;;5.03;;
16139;SDS011;8175;49.326;12.690;2023-12-07T12:21:43;5.63;;;5.03;;
16139;SDS011;8175;49.326;12.690;2023-12-07T12:24:08;6.87;;;5.30;;
16139;SDS011;8175;49.326;12.690;2023-12-07T12:26:36;6.33;;;5.73;;
16139;SDS011;8175;49.326;12.690;2023-12-07T12:29:05;5.53;;;4.97;;
16139;SDS011;8175;49.326;12.690;2023-12-07T12:31:32;5.67;;;5.13;;
16139;SDS011;8175;49.326;12.690;2023-12-07T12:33:57;6.43;;;5.40;;
16139;SDS011;8175;49.326;12.690;2023-12-07T12:36:26;5.43;;;4.80;;
16139;SDS011;8175;49.326;12.690;2023-12-07T12:38:53;5.10;;;4.60;;
16139;SDS011;8175;49.326;12.690;2023-12-07T12:41:19;7.00;;;5.20;;
16139;SDS011;8175;49.326;12.690;2023-12-07T12:43:46;6.60;;;5.47;;
16139;SDS011;8175;49.326;12.690;2023-12-07T12:46:12;6.03;;;5.43;;
16139;SDS011;8175;49.326;12.690;2023-12-07T12:48:55;5.07;;;4.57;;
16139;SDS011;8175;49.326;12.690;2023-12-07T12:51:23;9.37;;;7.17;;
16139;SDS011;8175;49.326;12.690;2023-12-07T12:53:53;11.27;;;9.53;;
16139;SDS011;8175;49.326;12.690;2023-12-07T12:56:20;37.40;;;25.07;;
16139;SDS011;8175;49.326;12.690;2023-12-07T12:58:48;10.93;;;7.73;;
16139;SDS011;8175;49.326;12.690;2023-12-07T13:01:15;14.53;;;12.27;;
16139;SDS011;8175;49.326;12.690;2023-12-07T13:03:42;8.07;;;6.97;;
16139;SDS011;8175;49.326;12.690;2023-12-07T13:06:10;9.20;;;6.70;;
16139;SDS011;8175;49.326;12.690;2023-12-07T13:08:37;6.70;;;6.00;;
16139;SDS011;8175;49.326;12.690;2023-12-07T13:11:02;7.47;;;6.03;;
16139;SDS011;8175;49.326;12.690;2023-12-07T13:13:28;13.37;;;9.73;;
16139;SDS011;8175;49.326;12.690;2023-12-07T13:15:54;20.67;;;14.83;;
16139;SDS011;8175;49.326;12.690;2023-12-07T13:18:20;23.03;;;17.60;;
16139;SDS011;8175;49.326;12.690;2023-12-07T13:20:46;15.97;;;12.20;;
16139;SDS011;8175;49.326;12.690;2023-12-07T13:23:11;13.97;;;10.30;;
16139;SDS011;8175;49.326;12.690;2023-12-07T13:25:37;6.47;;;5.23;;
16139;SDS011;8175;49.326;12.690;2023-12-07T13:28:02;8.67;;;7.23;;
16139;SDS011;8175;49.326;12.690;2023-12-07T13:30:29;9.00;;;7.90;;
16139;SDS011;8175;49.326;12.690;2023-12-07T13:32:58;10.03;;;8.47;;
16139;SDS011;8175;49.326;12.690;2023-12-07T13:35:24;10.07;;;8.57;;
16139;SDS011;8175;49.326;12.690;2023-12-07T13:37:50;12.50;;;9.50;;
16139;SDS011;8175;49.326;12.690;2023-12-07T13:40:15;7.67;;;6.53;;
16139;SDS011;8175;49.326;12.690;2023-12-07T13:42:42;8.33;;;6.27;;
16139;SDS011;8175;49.326;12.690;2023-12-07T13:45:08;9.20;;;7.20;;
16139;SDS011;8175;49.326;12.690;2023-12-07T13:47:33;7.07;;;5.80;;
16139;SDS011;8175;49.326;12.690;2023-12-07T13:50:02;8.43;;;6.67;;
16139;SDS011;8175;49.326;12.690;2023-12-07T13:52:29;10.63;;;8.73;;
16139;SDS011;8175;49.326;12.690;2023-12-07T13:54:55;9.97;;;8.77;;
16139;SDS011;8175;49.326;12.690;2023-12-07T13:57:22;11.70;;;8.07;;
16139;SDS011;8175;49.326;12.690;2023-12-07T13:59:51;9.63;;;7.67;;
16139;SDS011;8175;49.326;12.690;2023-12-07T14:02:18;11.17;;;9.47;;
16139;SDS011;8175;49.326;12.690;2023-12-07T14:04:45;9.53;;;6.80;;
16139;SDS011;8175;49.326;12.690;2023-12-07T14:07:14;9.90;;;6.87;;
16139;SDS011;8175;49.326;12.690;2023-12-07T14:09:43;10.83;;;8.47;;
16139;SDS011;8175;49.326;12.690;2023-12-07T14:12:11;11.37;;;7.80;;
16139;SDS011;8175;49.326;12.690;2023-12-07T14:14:39;11.40;;;7.93;;
16139;SDS011;8175;49.326;12.690;2023-12-07T14:17:09;18.80;;;10.90;;
16139;SDS011;8175;49.326;12.690;2023-12-07T14:19:35;17.10;;;10.50;;
16139;SDS011;8175;49.326;12.690;2023-12-07T14:22:01;12.13;;;9.73;;
16139;SDS011;8175;49.326;12.690;2023-12-07T14:24:27;12.57;;;9.47;;
16139;SDS011;8175;49.326;12.690;2023-12-07T14:26:55;10.60;;;8.60;;
16139;SDS011;8175;49.326;12.690;2023-12-07T14:29:21;11.77;;;8.97;;
16139;SDS011;8175;49.326;12.690;2023-12-07T14:31:49;12.17;;;9.53;;
16139;SDS011;8175;49.326;12.690;2023-12-07T14:34:16;10.87;;;9.10;;